Time;durP1;ratioP1;P1;durP2;ratioP2;P2;SDS_P1;SDS_P2;PMS_P1;PMS_P2;Temp;Humidity;BMP_temperature;BMP_pressure;BME280_temperature;BME280_humidity;BME280_pressure;Samples;Min_cycle;Max_cycle;Signal;HPM_P1;HPM_P2
2021/12/28 00:00:32;;;;;;;9.27;2.58;;;14.50;60.50;;;;;;5116897;28;20016;-38
2021/12/28 00:02:59;;;;;;;8.30;2.95;;;14.50;60.40;;;;;;5116699;28;20012;-38
2021/12/28 00:05:25;;;;;;;7.88;2.40;;;14.50;60.50;;;;;;5116564;28;20098;-39
2021/12/28 00:07:52;;;;;;;9.73;3.00;;;14.50;60.50;;;;;;5116818;28;20086;-38
2021/12/28 00:10:18;;;;;;;9.93;2.92;;;14.50;60.50;;;;;;5098652;28;20012;-39
2021/12/28 00:12:45;;;;;;;9.23;2.90;;;14.50;60.40;;;;;;5116702;28;20041;-38
2021/12/28 00:18:05;;;;;;;9.88;2.78;;;14.50;60.40;;;;;;5091947;28;20031;-39
2021/12/28 00:20:34;;;;;;;11.32;3.33;;;14.50;60.50;;;;;;5098294;28;20015;-39
2021/12/28 00:23:02;;;;;;;9.00;2.60;;;14.50;60.40;;;;;;5116626;28;20068;-41
2021/12/28 00:25:28;;;;;;;9.82;2.97;;;14.50;60.60;;;;;;5116293;28;20050;-40
2021/12/28 00:27:54;;;;;;;11.40;2.92;;;14.50;61.10;;;;;;5115924;28;20023;-40
2021/12/28 00:30:20;;;;;;;9.60;2.95;;;14.50;60.50;;;;;;5116236;28;20095;-41
2021/12/28 00:32:52;;;;;;;11.85;3.55;;;14.50;60.60;;;;;;5115863;28;20024;-39
2021/12/28 00:35:18;;;;;;;13.50;2.95;;;14.50;60.50;;;;;;5116279;28;20038;-40
2021/12/28 00:37:45;;;;;;;9.93;3.15;;;14.50;60.70;;;;;;5115945;28;20023;-40
2021/12/28 00:40:11;;;;;;;10.38;2.70;;;14.50;60.70;;;;;;5116033;28;20020;-40
2021/12/28 00:42:38;;;;;;;9.57;2.63;;;14.50;60.60;;;;;;5116099;28;20030;-38
2021/12/28 00:45:04;;;;;;;13.10;3.28;;;14.50;60.70;;;;;;5115833;28;20023;-37
2021/12/28 00:47:30;;;;;;;11.30;2.95;;;14.50;60.60;;;;;;5115837;28;20355;-38
2021/12/28 00:49:56;;;;;;;9.65;3.05;;;14.50;60.70;;;;;;5115778;28;20095;-37
2021/12/28 00:52:23;;;;;;;13.65;3.67;;;14.50;60.70;;;;;;5115582;28;20054;-37
2021/12/28 00:54:49;;;;;;;10.90;3.03;;;14.50;60.60;;;;;;5115713;28;20065;-41
2021/12/28 00:57:15;;;;;;;8.80;2.55;;;14.50;60.50;;;;;;5115364;28;20416;-38
2021/12/28 00:59:41;;;;;;;11.13;2.88;;;14.50;60.50;;;;;;5117502;28;20475;-39
2021/12/28 01:02:07;;;;;;;10.60;2.90;;;14.50;60.60;;;;;;5117871;28;20008;-40
2021/12/28 01:04:32;;;;;;;10.38;3.42;;;14.50;60.70;;;;;;5117885;28;20497;-38
2021/12/28 01:06:58;;;;;;;9.43;2.92;;;14.50;60.90;;;;;;5099870;28;20012;-39
2021/12/28 01:09:30;;;;;;;10.13;3.67;;;14.40;60.80;;;;;;5082957;28;20031;-37
2021/12/28 01:11:57;;;;;;;12.23;3.10;;;14.50;60.90;;;;;;5117725;28;20111;-37
2021/12/28 01:14:24;;;;;;;9.05;2.55;;;14.40;60.90;;;;;;5116879;28;20035;-38
2021/12/28 01:16:51;;;;;;;11.82;3.10;;;14.50;61.00;;;;;;5081544;28;20073;-38
2021/12/28 01:19:18;;;;;;;10.57;3.03;;;14.50;61.00;;;;;;5116668;28;20016;-39
2021/12/28 01:21:44;;;;;;;10.30;3.08;;;14.40;61.00;;;;;;5117298;28;20042;-40
2021/12/28 01:24:10;;;;;;;11.30;3.00;;;14.40;61.00;;;;;;5116989;28;20063;-42
2021/12/28 01:26:37;;;;;;;11.45;3.05;;;14.50;61.00;;;;;;5116215;28;20023;-38
2021/12/28 01:29:02;;;;;;;11.18;2.80;;;14.50;61.00;;;;;;5116984;28;20040;-38
2021/12/28 01:31:28;;;;;;;8.30;2.78;;;14.50;60.90;;;;;;5116840;28;20581;-38
2021/12/28 01:33:55;;;;;;;10.05;3.00;;;14.40;60.90;;;;;;5117675;28;20019;-38
2021/12/28 01:36:21;;;;;;;10.85;3.08;;;14.50;61.00;;;;;;5116743;28;20015;-41
2021/12/28 01:38:48;;;;;;;13.88;3.10;;;14.40;60.90;;;;;;5117854;28;20035;-39
2021/12/28 01:41:15;;;;;;;10.80;2.75;;;14.50;61.00;;;;;;5100038;28;20153;-38
2021/12/28 01:43:43;;;;;;;10.68;3.15;;;14.50;60.90;;;;;;5120606;28;20031;-42
2021/12/28 01:46:09;;;;;;;10.80;2.60;;;14.60;60.70;;;;;;5121219;28;20046;-38
2021/12/28 01:48:40;;;;;;;9.82;2.92;;;14.60;60.30;;;;;;5120889;28;20091;-38
2021/12/28 01:51:16;;;;;;;9.95;2.88;;;14.70;59.70;;;;;;5120769;28;20470;-38
2021/12/28 01:53:42;;;;;;;11.48;3.20;;;14.80;59.60;;;;;;5120243;28;20020;-40
2021/12/28 01:56:10;;;;;;;9.57;3.10;;;15.00;59.20;;;;;;5120584;28;20013;-37
2021/12/28 01:58:36;;;;;;;7.85;2.50;;;15.10;58.90;;;;;;5119158;28;20015;-37
2021/12/28 02:01:03;;;;;;;9.68;2.97;;;15.10;58.60;;;;;;5118598;28;20028;-40
2021/12/28 02:03:29;;;;;;;11.23;2.83;;;15.20;58.40;;;;;;5118296;28;20107;-37
2021/12/28 02:05:55;;;;;;;8.68;2.35;;;15.20;58.30;;;;;;5083380;28;20015;-38
2021/12/28 02:08:21;;;;;;;8.07;2.53;;;15.30;58.10;;;;;;5119281;28;20023;-38
2021/12/28 02:10:48;;;;;;;10.77;3.25;;;15.30;58.00;;;;;;5119242;28;20424;-41
2021/12/28 02:13:15;;;;;;;10.57;2.97;;;15.30;57.90;;;;;;5116012;28;20057;-39
2021/12/28 02:15:41;;;;;;;8.27;2.50;;;15.40;58.00;;;;;;5115887;28;20497;-38
2021/12/28 02:18:09;;;;;;;9.25;2.70;;;15.40;57.80;;;;;;5115996;28;20059;-37
2021/12/28 02:20:35;;;;;;;10.45;2.95;;;15.40;57.80;;;;;;5115364;28;20009;-37
2021/12/28 02:23:01;;;;;;;8.15;2.42;;;15.40;57.60;;;;;;5115232;28;20397;-37
2021/12/28 02:25:28;;;;;;;11.18;3.28;;;15.50;57.60;;;;;;5115411;28;20012;-38
2021/12/28 02:27:55;;;;;;;8.57;2.50;;;15.50;57.50;;;;;;5115202;28;20106;-38
2021/12/28 02:30:21;;;;;;;7.55;2.53;;;15.50;57.40;;;;;;5097256;28;20023;-37
2021/12/28 02:32:48;;;;;;;9.02;2.38;;;15.60;57.30;;;;;;5098161;28;20099;-37
2021/12/28 02:35:20;;;;;;;8.40;2.40;;;15.60;57.20;;;;;;5115688;28;20000;-38
2021/12/28 02:37:47;;;;;;;8.70;2.47;;;15.60;57.20;;;;;;5115279;28;20488;-37
2021/12/28 02:40:22;;;;;;;8.05;2.53;;;15.70;57.20;;;;;;5115577;28;20027;-37
2021/12/28 02:42:48;;;;;;;9.63;2.70;;;15.70;57.10;;;;;;5080778;28;20456;-38
2021/12/28 02:45:21;;;;;;;8.25;2.75;;;15.70;57.10;;;;;;5114637;28;20099;-39
2021/12/28 02:47:47;;;;;;;8.48;2.55;;;15.70;57.00;;;;;;5114555;28;20035;-40
2021/12/28 02:50:21;;;;;;;9.63;2.83;;;15.70;57.10;;;;;;5115411;28;20028;-38
2021/12/28 02:52:48;;;;;;;9.55;2.58;;;15.70;57.10;;;;;;5114872;28;20105;-41
2021/12/28 02:55:16;;;;;;;7.50;2.40;;;15.70;57.00;;;;;;5115269;28;20084;-38
2021/12/28 02:57:58;;;;;;;7.25;2.65;;;15.70;57.00;;;;;;5115437;28;20036;-39
2021/12/28 03:00:35;;;;;;;7.32;2.45;;;15.70;57.00;;;;;;5115278;28;20015;-40
2021/12/28 03:03:06;;;;;;;6.90;2.08;;;15.70;57.00;;;;;;5115352;28;20031;-38
2021/12/28 03:05:33;;;;;;;8.82;2.90;;;15.70;56.90;;;;;;5096515;28;20028;-38
2021/12/28 03:08:03;;;;;;;8.45;2.83;;;15.70;57.00;;;;;;5114524;28;20444;-38
2021/12/28 03:10:29;;;;;;;6.45;2.25;;;15.70;56.90;;;;;;5114659;28;20016;-37
2021/12/28 03:12:55;;;;;;;9.15;2.38;;;15.70;57.00;;;;;;5114812;28;20047;-38
2021/12/28 03:15:21;;;;;;;7.15;2.35;;;15.70;57.00;;;;;;5096746;28;20493;-38
2021/12/28 03:17:48;;;;;;;7.07;2.08;;;15.70;57.00;;;;;;5114184;28;20052;-37
2021/12/28 03:20:15;;;;;;;6.55;2.28;;;15.80;56.90;;;;;;5096613;28;20478;-38
2021/12/28 03:22:41;;;;;;;7.20;2.53;;;15.80;56.90;;;;;;5114999;28;20064;-39
2021/12/28 03:25:08;;;;;;;8.25;2.60;;;15.80;56.80;;;;;;5115162;28;20049;-39
2021/12/28 03:27:34;;;;;;;7.25;2.25;;;15.80;56.80;;;;;;5114739;28;20035;-38
2021/12/28 03:30:01;;;;;;;6.97;2.20;;;15.80;56.80;;;;;;5096501;28;20091;-40
2021/12/28 03:32:27;;;;;;;5.45;2.00;;;15.80;56.80;;;;;;5114355;28;20027;-40
2021/12/28 03:34:55;;;;;;;7.22;2.38;;;15.80;56.90;;;;;;5113950;28;20478;-39
2021/12/28 03:37:21;;;;;;;6.72;2.25;;;15.80;56.90;;;;;;5113989;28;20015;-38
2021/12/28 03:39:48;;;;;;;6.63;2.30;;;15.80;56.80;;;;;;5114153;28;20023;-39
2021/12/28 03:42:14;;;;;;;5.82;2.30;;;15.80;56.80;;;;;;5114486;28;20051;-38
2021/12/28 03:44:41;;;;;;;7.35;2.60;;;15.80;56.80;;;;;;5113843;28;20084;-38
2021/12/28 03:47:07;;;;;;;7.10;2.13;;;15.90;56.80;;;;;;5079305;28;20016;-40
2021/12/28 03:49:33;;;;;;;6.45;2.15;;;15.90;56.80;;;;;;5114027;28;20038;-38
2021/12/28 03:52:00;;;;;;;6.72;2.50;;;15.90;56.80;;;;;;5114297;28;20028;-39
2021/12/28 03:54:26;;;;;;;8.40;2.45;;;15.90;56.80;;;;;;5114673;28;20016;-40
2021/12/28 03:56:53;;;;;;;7.18;2.10;;;15.90;56.80;;;;;;5115503;28;20024;-39
2021/12/28 03:59:19;;;;;;;6.38;2.25;;;15.90;56.70;;;;;;5119635;28;20008;-41
2021/12/28 04:01:45;;;;;;;6.45;2.25;;;15.90;56.70;;;;;;5121741;28;20016;-37
2021/12/28 04:04:12;;;;;;;6.25;1.90;;;15.90;56.60;;;;;;5121160;28;20035;-41
2021/12/28 04:06:38;;;;;;;7.32;2.30;;;15.90;56.60;;;;;;5120972;28;20023;-38
2021/12/28 04:09:07;;;;;;;6.15;2.28;;;15.90;56.60;;;;;;5120368;28;20039;-38
2021/12/28 04:11:34;;;;;;;6.30;2.20;;;15.90;56.60;;;;;;5120182;28;20427;-38
2021/12/28 04:14:04;;;;;;;6.20;2.33;;;15.90;56.60;;;;;;5120292;28;20481;-38
2021/12/28 04:16:30;;;;;;;5.63;2.00;;;15.90;56.60;;;;;;5120430;28;20397;-38
2021/12/28 04:18:57;;;;;;;5.35;2.03;;;15.90;56.50;;;;;;5120527;28;20015;-37
2021/12/28 04:21:23;;;;;;;5.97;2.22;;;15.90;56.60;;;;;;5121167;28;20016;-39
2021/12/28 04:23:49;;;;;;;6.57;2.13;;;15.90;56.60;;;;;;5121453;28;20020;-37
2021/12/28 04:26:16;;;;;;;4.90;1.92;;;15.90;56.60;;;;;;5120909;28;20072;-39
2021/12/28 04:28:42;;;;;;;7.20;2.10;;;15.90;56.70;;;;;;5119865;28;20474;-38
2021/12/28 04:31:08;;;;;;;6.70;2.08;;;16.00;56.60;;;;;;5119088;28;20024;-38
2021/12/28 04:33:37;;;;;;;5.57;1.80;;;15.90;56.60;;;;;;5118207;28;20118;-38
2021/12/28 04:36:05;;;;;;;7.68;2.53;;;15.90;56.60;;;;;;5117751;28;20012;-38
2021/12/28 04:38:31;;;;;;;5.38;1.77;;;15.90;56.60;;;;;;5117781;28;20034;-37
2021/12/28 04:40:57;;;;;;;5.72;1.77;;;16.00;56.60;;;;;;5118398;28;20439;-38
2021/12/28 04:43:23;;;;;;;5.90;2.08;;;16.00;56.70;;;;;;5099182;28;20474;-37
2021/12/28 04:45:50;;;;;;;7.00;1.85;;;16.00;56.70;;;;;;5082692;28;20022;-38
2021/12/28 04:48:16;;;;;;;5.15;2.00;;;16.00;56.60;;;;;;5117666;28;20019;-39
2021/12/28 04:50:44;;;;;;;6.20;1.90;;;16.00;56.60;;;;;;5117849;28;20026;-40
2021/12/28 04:53:11;;;;;;;7.07;1.95;;;16.00;56.60;;;;;;5117602;28;20485;-39
2021/12/28 04:55:41;;;;;;;6.75;2.28;;;16.00;56.60;;;;;;5118003;28;20047;-37
2021/12/28 04:58:07;;;;;;;5.30;2.00;;;16.00;56.60;;;;;;5067274;28;20012;-37
2021/12/28 05:00:33;;;;;;;5.53;1.88;;;16.00;56.60;;;;;;5118321;28;20474;-38
2021/12/28 05:03:00;;;;;;;5.55;1.60;;;16.00;56.60;;;;;;5118524;28;20094;-38
2021/12/28 05:05:25;;;;;;;4.70;1.75;;;16.00;56.70;;;;;;5120144;28;20007;-43
2021/12/28 05:07:53;;;;;;;5.18;1.67;;;16.00;56.70;;;;;;5121420;28;20046;-44
2021/12/28 05:10:19;;;;;;;4.30;1.60;;;16.00;56.70;;;;;;5119471;28;20016;-41
2021/12/28 05:12:45;;;;;;;5.40;1.98;;;16.00;56.60;;;;;;5121236;28;20087;-42
2021/12/28 05:15:12;;;;;;;6.30;1.92;;;16.00;56.70;;;;;;5121479;28;20023;-39
2021/12/28 05:17:37;;;;;;;3.90;1.60;;;16.00;56.60;;;;;;5120308;28;20040;-40
2021/12/28 05:20:05;;;;;;;6.72;1.70;;;16.00;56.50;;;;;;5120875;28;20462;-40
2021/12/28 05:22:32;;;;;;;5.32;1.90;;;16.00;56.60;;;;;;5120662;28;20011;-38
2021/12/28 05:24:58;;;;;;;5.95;2.03;;;16.00;56.60;;;;;;5120377;28;20026;-39
2021/12/28 05:27:24;;;;;;;6.63;1.95;;;16.00;56.70;;;;;;5118866;28;20027;-39
2021/12/28 05:29:50;;;;;;;5.25;1.95;;;16.00;56.60;;;;;;5117763;28;20023;-37
2021/12/28 05:32:17;;;;;;;4.95;1.77;;;16.00;56.60;;;;;;5118315;28;20061;-38
2021/12/28 05:34:43;;;;;;;4.90;1.60;;;16.00;56.60;;;;;;5117476;28;20523;-37
2021/12/28 05:37:09;;;;;;;4.45;1.60;;;16.00;56.60;;;;;;5099365;28;20047;-37
2021/12/28 05:39:36;;;;;;;5.05;1.85;;;16.00;56.70;;;;;;5117859;28;20462;-40
2021/12/28 05:42:02;;;;;;;5.68;1.67;;;16.00;56.60;;;;;;5099327;28;20057;-37
2021/12/28 05:44:28;;;;;;;5.82;1.75;;;16.00;56.70;;;;;;5117410;28;20044;-37
2021/12/28 05:46:55;;;;;;;5.32;1.70;;;16.00;56.70;;;;;;5118847;28;20099;-37
2021/12/28 05:49:21;;;;;;;4.43;1.50;;;16.00;56.70;;;;;;5100771;28;20019;-38
2021/12/28 05:51:47;;;;;;;4.75;1.60;;;16.00;56.70;;;;;;5118516;28;20073;-43
2021/12/28 05:54:13;;;;;;;5.20;1.80;;;16.00;56.70;;;;;;5118780;28;20015;-38
2021/12/28 05:56:41;;;;;;;4.88;1.60;;;16.00;56.70;;;;;;5101240;28;20011;-40
2021/12/28 05:59:07;;;;;;;3.90;1.70;;;16.10;56.70;;;;;;5118180;28;20016;-39
2021/12/28 06:01:34;;;;;;;4.40;1.50;;;16.10;56.70;;;;;;5100073;28;20024;-38
2021/12/28 06:03:59;;;;;;;4.88;1.48;;;16.10;56.70;;;;;;5083108;28;20032;-38
2021/12/28 06:06:26;;;;;;;5.35;1.60;;;16.10;56.60;;;;;;5100604;28;20019;-37
2021/12/28 06:08:53;;;;;;;4.03;1.65;;;16.10;56.70;;;;;;5099810;28;20079;-43
2021/12/28 06:11:19;;;;;;;5.13;1.55;;;16.10;56.70;;;;;;5083138;28;20492;-37
2021/12/28 06:13:45;;;;;;;5.90;1.75;;;16.10;56.60;;;;;;5118222;28;20082;-37
2021/12/28 06:16:10;;;;;;;3.90;1.40;;;16.10;56.60;;;;;;5099587;28;20018;-39
2021/12/28 06:18:37;;;;;;;4.85;1.50;;;16.10;56.60;;;;;;5099622;28;20049;-37
2021/12/28 06:21:03;;;;;;;5.20;1.60;;;16.10;56.60;;;;;;5117214;28;20027;-37
2021/12/28 06:23:29;;;;;;;5.13;1.52;;;16.10;56.70;;;;;;5117750;28;20014;-39
2021/12/28 06:25:54;;;;;;;4.60;1.50;;;16.10;56.60;;;;;;5118187;28;20016;-40
2021/12/28 06:28:21;;;;;;;4.90;1.42;;;16.20;56.70;;;;;;5100913;28;20028;-39
2021/12/28 06:30:46;;;;;;;3.53;1.38;;;16.10;56.50;;;;;;5118890;28;20102;-38
2021/12/28 06:33:13;;;;;;;4.50;1.50;;;16.20;56.60;;;;;;5100710;28;20015;-38
2021/12/28 06:35:39;;;;;;;4.70;1.65;;;16.10;56.60;;;;;;5117936;28;20352;-40
2021/12/28 06:38:05;;;;;;;4.82;1.35;;;16.20;56.60;;;;;;5118188;28;20011;-37
2021/12/28 06:40:31;;;;;;;2.85;1.38;;;16.20;56.60;;;;;;5118327;28;20016;-38
2021/12/28 06:42:58;;;;;;;3.80;1.27;;;16.10;56.60;;;;;;5099636;28;20465;-40
2021/12/28 06:45:24;;;;;;;4.20;1.75;;;16.20;56.60;;;;;;5099870;28;20031;-38
2021/12/28 06:47:50;;;;;;;3.30;1.20;;;16.20;56.70;;;;;;5116837;28;20378;-38
2021/12/28 06:50:15;;;;;;;3.67;1.30;;;16.20;56.70;;;;;;5117885;28;20028;-37
2021/12/28 06:52:41;;;;;;;3.97;1.50;;;16.10;56.70;;;;;;5099262;28;20028;-42
2021/12/28 06:55:08;;;;;;;3.65;1.45;;;16.10;56.70;;;;;;5117196;28;20016;-38
2021/12/28 06:57:34;;;;;;;3.80;1.30;;;16.10;56.70;;;;;;5115596;28;20351;-37
2021/12/28 07:00:00;;;;;;;4.13;1.50;;;16.20;56.70;;;;;;5113949;28;20026;-37
2021/12/28 07:02:26;;;;;;;3.95;1.50;;;16.10;56.70;;;;;;5114546;28;20098;-37
2021/12/28 07:04:52;;;;;;;3.78;1.40;;;16.20;56.80;;;;;;5113792;28;20053;-37
2021/12/28 07:07:19;;;;;;;2.83;1.05;;;16.10;56.70;;;;;;5113739;28;20020;-37
2021/12/28 07:09:44;;;;;;;3.95;1.30;;;16.10;56.60;;;;;;5113843;28;20069;-37
2021/12/28 07:12:11;;;;;;;3.17;1.23;;;16.20;57.10;;;;;;5113932;28;20474;-37
2021/12/28 07:14:37;;;;;;;4.43;1.40;;;16.20;56.70;;;;;;5095716;28;20069;-37
2021/12/28 07:17:02;;;;;;;3.17;1.10;;;16.20;56.70;;;;;;5071809;28;20502;-37
2021/12/28 07:19:29;;;;;;;4.38;1.60;;;16.10;56.70;;;;;;5073713;28;20031;-37
2021/12/28 07:21:57;;;;;;;3.00;1.02;;;16.20;56.70;;;;;;5073672;28;20016;-37
2021/12/28 07:24:23;;;;;;;3.10;1.40;;;16.20;56.70;;;;;;5088851;28;20031;-37
2021/12/28 07:26:49;;;;;;;3.58;1.33;;;16.20;56.70;;;;;;5074338;28;20020;-40
2021/12/28 07:29:15;;;;;;;3.20;1.20;;;16.20;56.70;;;;;;5076895;28;20017;-41
2021/12/28 07:31:41;;;;;;;3.83;1.45;;;16.10;56.70;;;;;;5076415;28;20039;-39
2021/12/28 07:34:08;;;;;;;3.70;1.10;;;16.10;56.70;;;;;;5093054;28;20024;-39
2021/12/28 07:36:34;;;;;;;4.72;1.00;;;16.20;56.70;;;;;;5080342;28;20537;-37
2021/12/28 07:39:00;;;;;;;2.83;0.90;;;16.20;56.70;;;;;;5095518;28;20017;-38
2021/12/28 07:41:26;;;;;;;4.00;1.38;;;16.20;56.70;;;;;;5079490;28;20494;-39
2021/12/28 07:43:51;;;;;;;2.75;1.10;;;16.20;56.80;;;;;;5081299;28;20101;-38
2021/12/28 07:46:17;;;;;;;4.07;1.27;;;16.20;56.90;;;;;;5097168;28;20167;-40
2021/12/28 07:48:46;;;;;;;2.58;1.00;;;16.20;56.80;;;;;;5081772;28;20017;-39
2021/12/28 07:51:12;;;;;;;2.88;1.10;;;16.20;56.90;;;;;;5079664;28;20035;-37
2021/12/28 07:53:38;;;;;;;2.80;1.20;;;16.20;56.80;;;;;;5080342;28;20012;-38
2021/12/28 07:56:04;;;;;;;3.03;1.00;;;16.20;56.90;;;;;;5080565;28;20074;-38
2021/12/28 07:58:30;;;;;;;2.40;1.17;;;16.20;56.80;;;;;;5093403;28;20019;-38
2021/12/28 08:00:56;;;;;;;2.55;1.10;;;16.20;56.90;;;;;;5093022;28;20023;-38
2021/12/28 08:03:22;;;;;;;3.25;1.15;;;16.20;56.80;;;;;;5075812;28;20032;-38
2021/12/28 08:05:48;;;;;;;3.00;1.00;;;16.20;56.90;;;;;;5092346;28;20040;-38
2021/12/28 08:08:14;;;;;;;3.72;1.40;;;16.20;56.90;;;;;;5092548;28;20028;-38
2021/12/28 08:10:40;;;;;;;3.30;1.15;;;16.20;56.90;;;;;;5075465;28;20017;-37
2021/12/28 08:13:06;;;;;;;2.35;1.00;;;16.20;56.90;;;;;;5092740;28;20386;-38
2021/12/28 08:15:33;;;;;;;3.08;1.13;;;16.20;57.10;;;;;;5092836;28;20025;-39
2021/12/28 08:17:59;;;;;;;2.63;0.93;;;16.20;57.10;;;;;;5108534;28;20100;-37
2021/12/28 08:20:25;;;;;;;2.03;0.77;;;16.20;57.10;;;;;;5117173;28;20011;-38
2021/12/28 08:22:51;;;;;;;1.88;0.88;;;16.20;57.10;;;;;;5098971;28;20036;-37
2021/12/28 08:25:19;;;;;;;2.67;1.00;;;16.20;57.10;;;;;;5117417;28;20028;-38
2021/12/28 08:27:45;;;;;;;3.78;1.30;;;16.20;57.10;;;;;;5117097;28;20523;-38
2021/12/28 08:30:11;;;;;;;3.15;1.20;;;16.20;57.10;;;;;;5081138;28;20019;-40
2021/12/28 08:32:37;;;;;;;2.88;1.00;;;16.20;57.10;;;;;;5116437;28;20020;-38
2021/12/28 08:35:04;;;;;;;2.38;0.95;;;16.20;57.20;;;;;;5081252;28;20435;-37
2021/12/28 08:37:30;;;;;;;2.55;1.05;;;16.20;57.10;;;;;;5114843;28;20036;-37
2021/12/28 08:39:56;;;;;;;3.17;1.33;;;16.20;57.20;;;;;;5115898;28;20024;-37
2021/12/28 08:42:22;;;;;;;2.47;0.80;;;16.30;57.20;;;;;;5098894;28;20031;-38
2021/12/28 08:44:48;;;;;;;3.22;0.90;;;16.20;57.20;;;;;;5099680;28;20031;-38
2021/12/28 08:47:14;;;;;;;3.03;1.30;;;16.20;57.20;;;;;;5117841;28;20023;-39
2021/12/28 08:49:40;;;;;;;2.08;1.10;;;16.20;57.30;;;;;;5082635;28;20397;-41
2021/12/28 08:52:06;;;;;;;2.78;0.85;;;16.20;57.80;;;;;;5100197;28;20397;-39
2021/12/28 08:54:31;;;;;;;2.25;1.10;;;16.30;57.40;;;;;;5118066;28;20073;-38
2021/12/28 08:56:57;;;;;;;2.20;0.80;;;16.30;57.30;;;;;;5118723;28;20019;-38
2021/12/28 08:59:23;;;;;;;2.72;0.85;;;16.30;57.30;;;;;;5082811;28;20462;-39
2021/12/28 09:01:49;;;;;;;2.65;1.00;;;16.30;57.40;;;;;;5117734;28;21162;-40
2021/12/28 09:04:16;;;;;;;2.30;0.90;;;16.30;57.40;;;;;;5118112;28;20012;-38
2021/12/28 09:06:42;;;;;;;1.67;0.80;;;16.30;57.50;;;;;;5116937;28;20015;-37
2021/12/28 09:09:08;;;;;;;2.42;0.90;;;16.30;57.50;;;;;;5098984;28;20526;-38
2021/12/28 09:11:33;;;;;;;2.97;0.90;;;16.30;57.40;;;;;;5116517;28;20064;-38
2021/12/28 09:13:59;;;;;;;2.88;0.98;;;16.30;57.50;;;;;;5116620;28;20462;-39
2021/12/28 09:16:25;;;;;;;2.30;0.90;;;16.30;57.40;;;;;;5116580;28;20012;-39
2021/12/28 09:18:51;;;;;;;1.60;0.70;;;16.30;57.40;;;;;;5116533;28;20023;-38
2021/12/28 09:21:18;;;;;;;2.80;1.00;;;16.30;57.30;;;;;;5098300;28;20106;-38
2021/12/28 09:23:43;;;;;;;1.85;0.73;;;16.30;57.40;;;;;;5117413;28;20052;-40
2021/12/28 09:26:10;;;;;;;2.90;1.20;;;16.30;57.40;;;;;;5082275;28;20034;-39
2021/12/28 09:28:36;;;;;;;3.00;1.08;;;16.30;57.40;;;;;;5098745;28;20020;-38
2021/12/28 09:31:01;;;;;;;3.10;1.25;;;16.30;57.40;;;;;;5117202;28;20458;-39
2021/12/28 09:33:27;;;;;;;2.85;0.80;;;16.30;57.40;;;;;;5117265;28;20016;-39
2021/12/28 09:35:53;;;;;;;2.53;1.17;;;16.30;57.50;;;;;;5117032;28;20019;-40
2021/12/28 09:38:20;;;;;;;2.63;1.00;;;16.30;57.50;;;;;;5117088;28;20004;-39
2021/12/28 09:40:46;;;;;;;2.03;1.00;;;16.30;57.50;;;;;;5117676;28;20126;-40
2021/12/28 09:43:12;;;;;;;2.15;0.90;;;16.30;57.50;;;;;;5116010;28;20016;-39
2021/12/28 09:45:38;;;;;;;2.63;1.00;;;16.30;57.50;;;;;;5097009;28;20016;-37
2021/12/28 09:48:04;;;;;;;2.85;0.93;;;16.30;57.50;;;;;;5115556;28;20027;-38
2021/12/28 09:50:31;;;;;;;1.48;0.77;;;16.30;57.50;;;;;;5097431;28;20131;-38
2021/12/28 09:52:56;;;;;;;2.33;1.00;;;16.30;57.50;;;;;;5115559;28;20095;-37
2021/12/28 09:55:23;;;;;;;1.58;0.82;;;16.30;57.50;;;;;;5097381;28;20032;-40
2021/12/28 09:57:49;;;;;;;1.80;0.90;;;16.40;57.50;;;;;;5115675;28;20015;-37
2021/12/28 10:00:16;;;;;;;2.80;1.02;;;16.40;57.40;;;;;;5097503;28;20035;-39
2021/12/28 10:02:42;;;;;;;1.70;0.80;;;16.40;57.50;;;;;;5115472;28;20023;-40
2021/12/28 10:05:10;;;;;;;1.92;1.00;;;16.30;57.40;;;;;;5116001;28;20075;-39
2021/12/28 10:07:39;;;;;;;2.45;1.02;;;16.40;57.50;;;;;;5098032;28;20016;-39
2021/12/28 10:10:06;;;;;;;2.60;0.80;;;16.30;57.50;;;;;;5098106;28;20442;-38
2021/12/28 10:12:43;;;;;;;2.03;0.90;;;16.40;57.50;;;;;;5118472;28;20045;-40
2021/12/28 10:15:18;;;;;;;2.63;1.20;;;16.40;57.50;;;;;;5120844;28;20044;-41
2021/12/28 10:17:45;;;;;;;2.13;0.80;;;16.40;57.50;;;;;;5120542;28;20057;-41
2021/12/28 10:20:13;;;;;;;2.05;0.75;;;16.40;57.40;;;;;;5120344;28;20098;-39
2021/12/28 10:22:46;;;;;;;1.70;0.80;;;16.40;57.60;;;;;;5120383;28;20072;-40
2021/12/28 10:25:23;;;;;;;2.03;0.90;;;16.40;57.60;;;;;;5101166;28;20012;-38
2021/12/28 10:27:52;;;;;;;1.98;0.80;;;16.30;57.60;;;;;;5118804;28;20022;-40
2021/12/28 10:30:23;;;;;;;1.73;0.90;;;16.40;57.70;;;;;;5119028;28;20057;-38
2021/12/28 10:32:51;;;;;;;1.52;0.82;;;16.40;57.70;;;;;;5119083;28;20377;-40
2021/12/28 10:35:19;;;;;;;1.77;0.85;;;16.40;57.80;;;;;;5119493;28;20020;-39
2021/12/28 10:37:49;;;;;;;2.28;0.80;;;16.30;57.70;;;;;;5100357;28;20042;-38
2021/12/28 10:40:20;;;;;;;2.97;1.00;;;16.30;57.80;;;;;;5118492;28;20056;-38
2021/12/28 10:42:54;;;;;;;3.17;1.00;;;16.40;57.80;;;;;;5100939;28;20023;-39
2021/12/28 10:45:26;;;;;;;2.20;0.90;;;16.40;57.80;;;;;;5119088;28;20024;-41
2021/12/28 10:47:52;;;;;;;3.45;0.80;;;16.40;57.70;;;;;;5118173;28;20039;-41
2021/12/28 10:50:23;;;;;;;1.70;0.77;;;16.40;57.70;;;;;;5082053;28;20012;-38
2021/12/28 10:52:52;;;;;;;3.17;1.05;;;16.30;57.60;;;;;;5116313;28;20012;-42
2021/12/28 10:55:23;;;;;;;5.22;1.25;;;16.40;57.60;;;;;;5117752;28;20043;-38
2021/12/28 10:57:49;;;;;;;3.55;1.00;;;16.50;57.50;;;;;;5099470;28;20042;-41
2021/12/28 11:00:28;;;;;;;2.10;0.98;;;16.50;57.40;;;;;;5117611;28;20393;-42
2021/12/28 11:03:14;;;;;;;5.15;1.20;;;16.50;57.30;;;;;;5116644;28;20020;-38
2021/12/28 11:05:42;;;;;;;4.78;0.90;;;16.50;57.20;;;;;;5117116;28;20035;-41
2021/12/28 11:08:08;;;;;;;4.25;1.20;;;16.50;57.20;;;;;;5099547;28;20363;-40
2021/12/28 11:10:36;;;;;;;5.22;1.40;;;16.50;57.10;;;;;;5120314;28;20024;-39
2021/12/28 11:13:03;;;;;;;3.05;1.17;;;16.50;57.60;;;;;;5119562;28;20020;-40
2021/12/28 11:15:36;;;;;;;3.30;1.30;;;16.50;57.10;;;;;;5101098;28;20462;-38
2021/12/28 11:18:25;;;;;;;5.20;1.20;;;16.50;57.00;;;;;;5118878;28;20035;-37
2021/12/28 11:20:55;;;;;;;6.38;1.40;;;16.50;57.00;;;;;;5103475;28;20023;-38
2021/12/28 11:23:23;;;;;;;4.10;1.27;;;16.50;56.90;;;;;;5119015;28;20011;-38
2021/12/28 11:26:00;;;;;;;6.20;1.55;;;16.50;56.70;;;;;;5100988;28;20015;-38
2021/12/28 11:28:26;;;;;;;7.22;1.50;;;16.60;57.20;;;;;;5119395;28;20027;-39
2021/12/28 11:31:35;;;;;;;5.75;1.52;;;16.60;56.40;;;;;;5119665;28;20034;-38
2021/12/28 11:34:06;;;;;;;5.90;1.80;;;16.70;56.20;;;;;;5119660;28;20016;-38
2021/12/28 11:36:57;;;;;;;5.38;1.45;;;16.70;55.90;;;;;;5101785;28;20046;-39
2021/12/28 11:39:28;;;;;;;6.00;1.60;;;16.70;55.70;;;;;;5107164;28;20032;-38
2021/12/28 11:41:55;;;;;;;7.60;1.83;;;16.80;55.50;;;;;;5119402;28;20019;-37
2021/12/28 11:44:21;;;;;;;7.60;2.08;;;16.80;55.40;;;;;;5099587;28;20023;-37
2021/12/28 11:46:48;;;;;;;7.47;1.95;;;16.80;55.30;;;;;;5100135;28;20051;-37
2021/12/28 11:49:15;;;;;;;6.55;1.60;;;16.80;55.10;;;;;;5100444;28;20020;-38
2021/12/28 11:51:42;;;;;;;9.07;2.22;;;16.90;55.50;;;;;;5117597;28;20165;-39
2021/12/28 11:54:09;;;;;;;6.57;1.98;;;16.80;54.80;;;;;;5118080;28;20049;-40
2021/12/28 11:56:37;;;;;;;7.95;2.58;;;16.80;55.30;;;;;;5118271;28;20031;-38
2021/12/28 11:59:17;;;;;;;9.23;2.50;;;16.80;54.80;;;;;;5117467;28;20048;-37
2021/12/28 12:01:57;;;;;;;10.15;2.05;;;16.80;54.70;;;;;;5116904;28;20020;-37
2021/12/28 12:07:05;;;;;;;8.05;2.08;;;16.80;54.60;;;;;;5116760;28;20023;-37
2021/12/28 12:09:33;;;;;;;9.88;2.13;;;16.80;54.60;;;;;;5116654;28;20393;-38
2021/12/28 12:12:08;;;;;;;8.85;2.15;;;16.80;54.50;;;;;;5116956;28;20023;-38
2021/12/28 12:14:52;;;;;;;8.68;2.45;;;16.80;54.40;;;;;;5118387;28;20020;-40
2021/12/28 12:17:43;;;;;;;9.75;2.20;;;16.80;54.30;;;;;;5117827;28;20047;-38
2021/12/28 12:20:22;;;;;;;8.15;2.13;;;16.80;54.20;;;;;;5116949;28;20040;-39
2021/12/28 12:22:49;;;;;;;9.13;2.22;;;16.80;54.20;;;;;;5099670;28;20016;-37
2021/12/28 12:25:20;;;;;;;7.50;2.50;;;16.80;54.10;;;;;;5099548;28;20106;-38
2021/12/28 12:27:52;;;;;;;7.75;2.05;;;16.70;54.00;;;;;;5117027;28;20020;-38
2021/12/28 12:30:17;;;;;;;9.13;2.22;;;16.80;54.00;;;;;;5099882;28;20031;-38
2021/12/28 12:32:55;;;;;;;9.80;2.10;;;16.80;54.00;;;;;;5116868;28;20024;-38
2021/12/28 12:35:34;;;;;;;10.57;2.70;;;16.70;53.90;;;;;;5117025;28;20027;-38
2021/12/28 12:38:14;;;;;;;9.90;2.83;;;16.70;53.90;;;;;;5116883;28;20015;-38
2021/12/28 12:41:19;;;;;;;11.23;2.33;;;16.70;54.00;;;;;;5117014;28;20103;-38
2021/12/28 12:44:07;;;;;;;8.43;2.47;;;16.70;54.10;;;;;;4998683;28;20018;-38
2021/12/28 12:46:37;;;;;;;9.50;2.40;;;16.70;54.10;;;;;;5014857;28;20031;-38
2021/12/28 12:49:09;;;;;;;7.55;2.03;;;16.60;54.20;;;;;;5014957;28;20088;-39
2021/12/28 12:51:46;;;;;;;10.82;2.72;;;16.60;54.20;;;;;;5015040;28;20060;-39
2021/12/28 12:54:25;;;;;;;8.23;2.13;;;16.60;54.20;;;;;;5014628;28;20025;-37